Time;durP1;ratioP1;P1;durP2;ratioP2;P2;SDS_P1;SDS_P2;PMS_P1;PMS_P2;Temp;Humidity;BMP_temperature;BMP_pressure;BME280_temperature;BME280_humidity;BME280_pressure;Samples;Min_cycle;Max_cycle;Signal;HPM_P1;HPM_P2
2022/01/10 00:00:40;;;;;;;8.57;5.93;;;;;;;;;;5020727;28;20038;-55
2022/01/10 00:03:07;;;;;;;9.80;5.30;;;;;;;;;;5014152;28;20037;-54
2022/01/10 00:05:33;;;;;;;8.55;5.60;;;;;;;;;;5019858;28;20087;-56
2022/01/10 00:08:02;;;;;;;9.32;6.25;;;;;;;;;;5023756;28;20079;-57
2022/01/10 00:10:28;;;;;;;9.10;6.28;;;;;;;;;;5023979;28;20038;-56
2022/01/10 00:12:54;;;;;;;7.35;5.32;;;;;;;;;;5015444;28;20029;-55
2022/01/10 00:15:20;;;;;;;9.40;5.22;;;;;;;;;;5026434;28;20041;-57
2022/01/10 00:17:46;;;;;;;12.18;5.53;;;;;;;;;;5020740;28;20628;-56
2022/01/10 00:20:14;;;;;;;8.25;4.82;;;;;;;;;;5016895;28;20050;-56
2022/01/10 00:22:45;;;;;;;7.63;5.07;;;;;;;;;;5015758;28;20041;-56
2022/01/10 00:25:12;;;;;;;6.95;5.22;;;;;;;;;;5027688;28;20033;-54
2022/01/10 00:27:38;;;;;;;9.70;4.95;;;;;;;;;;5024194;28;20034;-56
2022/01/10 00:30:04;;;;;;;6.65;4.97;;;;;;;;;;5025207;28;20049;-56
2022/01/10 00:32:30;;;;;;;7.93;5.35;;;;;;;;;;5028002;28;20103;-52
2022/01/10 00:34:56;;;;;;;9.75;5.55;;;;;;;;;;5021855;28;20069;-52
2022/01/10 00:37:21;;;;;;;11.13;6.13;;;;;;;;;;5018710;28;20497;-53
2022/01/10 00:39:48;;;;;;;11.63;6.63;;;;;;;;;;5020690;28;20087;-48
2022/01/10 00:42:14;;;;;;;9.50;6.25;;;;;;;;;;5025800;28;20494;-52
2022/01/10 00:44:46;;;;;;;8.75;5.70;;;;;;;;;;5025915;28;20025;-52
2022/01/10 00:47:12;;;;;;;8.52;5.95;;;;;;;;;;5024111;28;20033;-48
2022/01/10 00:49:37;;;;;;;9.90;6.10;;;;;;;;;;5021462;28;20033;-48
2022/01/10 00:52:04;;;;;;;8.73;5.70;;;;;;;;;;5022742;28;20033;-53
2022/01/10 00:54:30;;;;;;;7.82;5.50;;;;;;;;;;5025532;28;20048;-49
2022/01/10 00:56:56;;;;;;;8.15;5.15;;;;;;;;;;5027645;28;20044;-49
2022/01/10 00:59:21;;;;;;;5.97;4.35;;;;;;;;;;5029250;28;20033;-52
2022/01/10 01:01:47;;;;;;;8.10;4.80;;;;;;;;;;5022431;28;20030;-48
2022/01/10 01:04:14;;;;;;;9.23;5.25;;;;;;;;;;5023652;28;20029;-50
2022/01/10 01:06:41;;;;;;;8.27;5.75;;;;;;;;;;5022335;28;20033;-51
2022/01/10 01:09:09;;;;;;;9.88;5.65;;;;;;;;;;5019610;28;20466;-53
2022/01/10 01:14:08;;;;;;;14.60;7.00;;;;;;;;;;5022067;28;20038;-48
2022/01/10 01:20:05;;;;;;;16.10;7.75;;;;;;;;;;5024753;28;20061;-53
2022/01/10 01:24:43;;;;;;;13.63;9.57;;;;;;;;;;5021523;28;20041;-50
2022/01/10 01:27:09;;;;;;;14.02;7.90;;;;;;;;;;5026602;28;20045;-50
2022/01/10 01:29:35;;;;;;;14.52;9.13;;;;;;;;;;5023921;28;20088;-48
2022/01/10 01:32:00;;;;;;;17.13;9.65;;;;;;;;;;5021981;28;20033;-49
2022/01/10 01:34:26;;;;;;;13.48;8.40;;;;;;;;;;5026045;28;20125;-53
2022/01/10 01:36:55;;;;;;;15.00;9.02;;;;;;;;;;5024876;28;20037;-54
2022/01/10 01:39:24;;;;;;;14.60;8.80;;;;;;;;;;5022349;28;20041;-51
2022/01/10 01:42:00;;;;;;;10.88;7.28;;;;;;;;;;5014385;28;20083;-48
2022/01/10 01:44:26;;;;;;;17.38;9.10;;;;;;;;;;5027577;28;20445;-51
2022/01/10 01:46:52;;;;;;;18.83;9.65;;;;;;;;;;5021779;28;20029;-49
2022/01/10 01:49:17;;;;;;;17.38;9.77;;;;;;;;;;5020111;28;20040;-51
2022/01/10 01:51:43;;;;;;;16.55;9.40;;;;;;;;;;5023826;28;20448;-49
2022/01/10 01:54:09;;;;;;;15.95;8.90;;;;;;;;;;5019568;28;20091;-49
2022/01/10 01:56:37;;;;;;;13.38;7.70;;;;;;;;;;5019515;28;20030;-51
2022/01/10 01:59:04;;;;;;;11.45;6.50;;;;;;;;;;5024282;28;20049;-52
2022/01/10 02:01:30;;;;;;;13.48;7.10;;;;;;;;;;5024120;28;20026;-51
2022/01/10 02:03:56;;;;;;;10.02;5.93;;;;;;;;;;5018501;28;20030;-53
2022/01/10 02:06:22;;;;;;;13.77;6.88;;;;;;;;;;5020517;28;20417;-53
2022/01/10 02:08:48;;;;;;;13.70;7.15;;;;;;;;;;5021298;28;20086;-49
2022/01/10 02:11:14;;;;;;;11.48;6.20;;;;;;;;;;5021287;28;20048;-49
2022/01/10 02:13:41;;;;;;;7.93;5.50;;;;;;;;;;5017977;28;20067;-51
2022/01/10 02:16:10;;;;;;;9.45;5.60;;;;;;;;;;5023237;28;20091;-53
2022/01/10 02:18:37;;;;;;;8.18;5.30;;;;;;;;;;5018445;28;20574;-50
2022/01/10 02:21:05;;;;;;;10.70;4.78;;;;;;;;;;5018336;28;20383;-53
2022/01/10 02:23:32;;;;;;;11.80;4.93;;;;;;;;;;5021056;28;20057;-52
2022/01/10 02:25:59;;;;;;;11.23;5.47;;;;;;;;;;5023828;28;20037;-48
2022/01/10 02:28:25;;;;;;;12.43;5.68;;;;;;;;;;5019295;28;20033;-48
2022/01/10 02:30:56;;;;;;;9.90;5.30;;;;;;;;;;5018891;28;20111;-55
2022/01/10 02:33:27;;;;;;;7.97;5.15;;;;;;;;;;5020107;28;20049;-49
2022/01/10 02:36:16;;;;;;;13.55;5.80;;;;;;;;;;5022221;28;20069;-54
2022/01/10 02:38:57;;;;;;;9.60;5.78;;;;;;;;;;5022428;28;20045;-48
2022/01/10 02:41:31;;;;;;;9.35;4.78;;;;;;;;;;5018387;28;20073;-49
2022/01/10 02:43:59;;;;;;;13.88;5.78;;;;;;;;;;5017724;28;20033;-49
2022/01/10 02:46:25;;;;;;;12.43;5.20;;;;;;;;;;5021176;28;20030;-48
2022/01/10 02:48:51;;;;;;;8.43;4.82;;;;;;;;;;5018963;28;20032;-54
2022/01/10 02:51:18;;;;;;;9.40;4.55;;;;;;;;;;5022787;28;20064;-52
2022/01/10 02:53:44;;;;;;;10.68;4.22;;;;;;;;;;5016991;28;20038;-50
2022/01/10 02:56:11;;;;;;;13.40;3.80;;;;;;;;;;5023423;28;20038;-53
2022/01/10 02:58:37;;;;;;;9.00;3.33;;;;;;;;;;5021406;28;20717;-54
2022/01/10 03:01:04;;;;;;;5.95;3.30;;;;;;;;;;5019373;28;20037;-50
2022/01/10 03:03:32;;;;;;;8.48;3.42;;;;;;;;;;5022746;28;20045;-52
2022/01/10 03:06:00;;;;;;;6.57;3.25;;;;;;;;;;5018345;28;20048;-55
2022/01/10 03:08:27;;;;;;;9.10;3.20;;;;;;;;;;5019492;28;20403;-52
2022/01/10 03:10:54;;;;;;;5.63;3.00;;;;;;;;;;5022944;28;20063;-55
2022/01/10 03:13:20;;;;;;;6.20;2.90;;;;;;;;;;5018091;28;20037;-48
2022/01/10 03:15:46;;;;;;;5.75;3.10;;;;;;;;;;5027159;28;20026;-52
2022/01/10 03:18:12;;;;;;;8.20;2.72;;;;;;;;;;5025510;28;20038;-49
2022/01/10 03:20:38;;;;;;;6.63;3.00;;;;;;;;;;5021930;28;20046;-50
2022/01/10 03:23:04;;;;;;;7.05;2.97;;;;;;;;;;5019323;28;20045;-53
2022/01/10 03:25:29;;;;;;;8.48;3.33;;;;;;;;;;5022535;28;20119;-53
2022/01/10 03:27:55;;;;;;;6.95;2.70;;;;;;;;;;5019564;28;20141;-55
2022/01/10 03:30:21;;;;;;;5.53;2.60;;;;;;;;;;5016771;28;20037;-53
2022/01/10 03:32:50;;;;;;;10.13;2.80;;;;;;;;;;5016130;28;20107;-50
2022/01/10 03:35:16;;;;;;;6.22;2.40;;;;;;;;;;5023626;28;20163;-51
2022/01/10 03:37:42;;;;;;;4.68;2.35;;;;;;;;;;5015209;28;22179;-53
2022/01/10 03:40:09;;;;;;;9.25;2.40;;;;;;;;;;5028110;28;20029;-51
2022/01/10 03:42:35;;;;;;;5.45;2.17;;;;;;;;;;5015922;28;20045;-53
2022/01/10 03:45:05;;;;;;;7.82;2.58;;;;;;;;;;5023083;28;20442;-54
2022/01/10 03:47:31;;;;;;;3.15;2.00;;;;;;;;;;5021121;28;20095;-53
2022/01/10 03:49:57;;;;;;;5.55;2.50;;;;;;;;;;5018242;28;20109;-56
2022/01/10 03:52:25;;;;;;;6.95;2.28;;;;;;;;;;5024437;28;20146;-48
2022/01/10 03:54:51;;;;;;;7.53;2.30;;;;;;;;;;5021413;28;20121;-49
2022/01/10 03:57:16;;;;;;;4.05;1.70;;;;;;;;;;5020278;28;20108;-56
2022/01/10 03:59:42;;;;;;;6.65;2.22;;;;;;;;;;5018492;28;20033;-52
2022/01/10 04:02:08;;;;;;;4.68;2.10;;;;;;;;;;5028501;28;20455;-48
2022/01/10 04:04:36;;;;;;;4.10;2.15;;;;;;;;;;5028251;28;20037;-50
2022/01/10 04:07:03;;;;;;;3.75;2.42;;;;;;;;;;5024513;28;22061;-55
2022/01/10 04:09:28;;;;;;;5.47;1.92;;;;;;;;;;5026746;28;20033;-51
2022/01/10 04:11:54;;;;;;;6.63;2.60;;;;;;;;;;5023224;28;20034;-54
2022/01/10 04:14:20;;;;;;;5.03;2.85;;;;;;;;;;5022577;28;20060;-53
2022/01/10 04:16:46;;;;;;;6.57;2.50;;;;;;;;;;5019093;28;20057;-54
2022/01/10 04:19:12;;;;;;;3.53;2.20;;;;;;;;;;5025825;28;20052;-49
2022/01/10 04:21:38;;;;;;;7.78;2.08;;;;;;;;;;5024923;28;20138;-51
2022/01/10 04:24:04;;;;;;;5.28;2.03;;;;;;;;;;5020042;28;20026;-50
2022/01/10 04:26:30;;;;;;;7.97;3.20;;;;;;;;;;5022407;28;20038;-54
2022/01/10 04:28:58;;;;;;;7.68;2.70;;;;;;;;;;5018038;28;20056;-48
2022/01/10 04:31:24;;;;;;;8.73;2.35;;;;;;;;;;5022585;28;20045;-48
2022/01/10 04:33:49;;;;;;;4.10;2.10;;;;;;;;;;5023537;28;20029;-50
2022/01/10 04:36:15;;;;;;;3.40;2.15;;;;;;;;;;5027843;28;20036;-55
2022/01/10 04:38:42;;;;;;;5.07;2.10;;;;;;;;;;5020826;28;20367;-49
2022/01/10 04:41:09;;;;;;;4.72;2.30;;;;;;;;;;5021964;28;20045;-54
2022/01/10 04:43:36;;;;;;;5.65;2.25;;;;;;;;;;5023917;28;20947;-56
2022/01/10 04:46:02;;;;;;;7.97;2.00;;;;;;;;;;5024463;28;20037;-51
2022/01/10 04:48:28;;;;;;;7.05;2.35;;;;;;;;;;5023797;28;20025;-55
2022/01/10 04:53:22;;;;;;;4.13;1.80;;;;;;;;;;5022481;28;20038;-54
2022/01/10 04:55:48;;;;;;;2.40;1.63;;;;;;;;;;5023447;28;20511;-51
2022/01/10 04:58:14;;;;;;;3.08;1.60;;;;;;;;;;5017167;28;20029;-53
2022/01/10 05:00:39;;;;;;;5.00;1.77;;;;;;;;;;5020793;28;20030;-51
2022/01/10 05:03:05;;;;;;;3.65;1.80;;;;;;;;;;5026363;28;20032;-50
2022/01/10 05:05:31;;;;;;;5.68;1.85;;;;;;;;;;5024943;28;20471;-49
2022/01/10 05:07:57;;;;;;;3.58;1.83;;;;;;;;;;5016004;28;20041;-51
2022/01/10 05:10:23;;;;;;;7.22;1.85;;;;;;;;;;5025374;28;20033;-48
2022/01/10 05:12:48;;;;;;;3.80;1.80;;;;;;;;;;5023494;28;20029;-54
2022/01/10 05:15:14;;;;;;;3.55;1.52;;;;;;;;;;5020926;28;20049;-54
2022/01/10 05:17:40;;;;;;;4.47;1.80;;;;;;;;;;5021223;28;20387;-51
2022/01/10 05:20:06;;;;;;;4.50;1.70;;;;;;;;;;5024621;28;20132;-54
2022/01/10 05:22:32;;;;;;;6.30;1.60;;;;;;;;;;5022045;28;20044;-50
2022/01/10 05:24:58;;;;;;;6.97;1.98;;;;;;;;;;5021544;28;20492;-50
2022/01/10 05:27:24;;;;;;;4.40;1.42;;;;;;;;;;5026595;28;20072;-49
2022/01/10 05:29:49;;;;;;;4.32;2.30;;;;;;;;;;5020559;28;20449;-52
2022/01/10 05:32:15;;;;;;;2.13;1.30;;;;;;;;;;5019101;28;20387;-52
2022/01/10 05:34:41;;;;;;;3.08;1.60;;;;;;;;;;5024400;28;20044;-50
2022/01/10 05:37:07;;;;;;;2.60;1.52;;;;;;;;;;5022919;28;20052;-54
2022/01/10 05:39:32;;;;;;;2.65;1.45;;;;;;;;;;5020089;28;20964;-50
2022/01/10 05:41:58;;;;;;;1.95;1.33;;;;;;;;;;5022658;28;20072;-56
2022/01/10 05:44:25;;;;;;;3.13;1.45;;;;;;;;;;5024330;28;20053;-52
2022/01/10 05:46:51;;;;;;;3.20;1.55;;;;;;;;;;5025766;28;20064;-49
2022/01/10 05:49:24;;;;;;;3.40;1.40;;;;;;;;;;5024470;28;20128;-50
2022/01/10 05:51:50;;;;;;;2.42;1.40;;;;;;;;;;5020081;28;20037;-54
2022/01/10 05:54:23;;;;;;;7.20;1.55;;;;;;;;;;5024149;28;20111;-53
2022/01/10 05:56:52;;;;;;;3.08;1.40;;;;;;;;;;5021975;28;20029;-57
2022/01/10 05:59:19;;;;;;;3.65;1.52;;;;;;;;;;5020286;28;20029;-51
2022/01/10 06:01:46;;;;;;;6.97;1.80;;;;;;;;;;5020308;28;20116;-50
2022/01/10 06:04:12;;;;;;;2.97;1.60;;;;;;;;;;5026478;28;20037;-53
2022/01/10 06:06:37;;;;;;;3.72;1.85;;;;;;;;;;5022306;28;20021;-51
2022/01/10 06:09:03;;;;;;;3.03;1.65;;;;;;;;;;5016098;28;20072;-52
2022/01/10 06:11:29;;;;;;;6.35;3.65;;;;;;;;;;5022212;28;20108;-50
2022/01/10 06:13:55;;;;;;;5.13;1.70;;;;;;;;;;5025980;28;20052;-51
2022/01/10 06:16:20;;;;;;;5.05;1.88;;;;;;;;;;5021268;28;20040;-55
2022/01/10 06:18:46;;;;;;;3.55;1.60;;;;;;;;;;5016462;28;20048;-50
2022/01/10 06:21:12;;;;;;;3.53;1.90;;;;;;;;;;5020619;28;20089;-56
2022/01/10 06:23:38;;;;;;;5.18;2.60;;;;;;;;;;5017571;28;20061;-51
2022/01/10 06:26:04;;;;;;;3.88;2.00;;;;;;;;;;5023186;28;20116;-50
2022/01/10 06:28:29;;;;;;;3.45;1.65;;;;;;;;;;5018536;28;20037;-49
2022/01/10 06:30:55;;;;;;;3.83;1.80;;;;;;;;;;5016978;28;20455;-51
2022/01/10 06:33:21;;;;;;;3.67;1.70;;;;;;;;;;5017930;28;20032;-49
2022/01/10 06:35:47;;;;;;;2.95;1.65;;;;;;;;;;5014588;28;20475;-53
2022/01/10 06:38:12;;;;;;;6.93;1.90;;;;;;;;;;5021151;28;20498;-55
2022/01/10 06:40:38;;;;;;;3.35;1.83;;;;;;;;;;5019674;28;20033;-54
2022/01/10 06:43:05;;;;;;;3.15;1.42;;;;;;;;;;5017879;28;20401;-51
2022/01/10 06:45:30;;;;;;;2.88;1.63;;;;;;;;;;5016236;28;20075;-54
2022/01/10 06:47:57;;;;;;;3.13;1.60;;;;;;;;;;5020174;28;20567;-53
2022/01/10 06:50:23;;;;;;;4.20;1.83;;;;;;;;;;5015306;28;20069;-54
2022/01/10 06:52:51;;;;;;;5.05;1.63;;;;;;;;;;5022319;28;20058;-53
2022/01/10 06:55:16;;;;;;;3.38;1.80;;;;;;;;;;5026723;28;20041;-54
2022/01/10 06:57:42;;;;;;;4.30;1.63;;;;;;;;;;5021807;28;20502;-55
2022/01/10 07:00:09;;;;;;;6.18;1.98;;;;;;;;;;5023093;28;20075;-55
2022/01/10 07:02:35;;;;;;;2.63;1.67;;;;;;;;;;5021597;28;20106;-55
2022/01/10 07:05:01;;;;;;;5.10;1.90;;;;;;;;;;5022799;28;20128;-56
2022/01/10 07:07:27;;;;;;;3.95;2.20;;;;;;;;;;5020966;28;20659;-51
2022/01/10 07:09:53;;;;;;;3.80;1.73;;;;;;;;;;5018681;28;20037;-51
2022/01/10 07:12:19;;;;;;;2.95;1.85;;;;;;;;;;5022137;28;20080;-55
2022/01/10 07:14:44;;;;;;;2.67;1.70;;;;;;;;;;5018071;28;20034;-56
2022/01/10 07:17:10;;;;;;;5.93;2.75;;;;;;;;;;5015963;28;20471;-52
2022/01/10 07:19:36;;;;;;;4.00;1.85;;;;;;;;;;5018646;28;25875;-56
2022/01/10 07:22:03;;;;;;;3.92;1.88;;;;;;;;;;5026327;28;20063;-55
2022/01/10 07:24:29;;;;;;;4.15;2.00;;;;;;;;;;5017253;28;20113;-54
2022/01/10 07:26:54;;;;;;;6.55;2.17;;;;;;;;;;5024725;28;20155;-55
2022/01/10 07:29:20;;;;;;;3.67;2.20;;;;;;;;;;5024379;28;20063;-54
2022/01/10 07:31:46;;;;;;;6.45;2.05;;;;;;;;;;5020276;28;20109;-52
2022/01/10 07:34:15;;;;;;;5.30;2.38;;;;;;;;;;5026461;28;21042;-55
2022/01/10 07:36:42;;;;;;;3.80;2.38;;;;;;;;;;5015669;28;20165;-51
2022/01/10 07:39:09;;;;;;;7.35;2.08;;;;;;;;;;5025016;28;20026;-56
2022/01/10 07:41:34;;;;;;;2.97;1.88;;;;;;;;;;5025532;28;20026;-56
2022/01/10 07:44:00;;;;;;;4.63;2.30;;;;;;;;;;5025270;28;20032;-55
2022/01/10 07:46:27;;;;;;;5.63;2.42;;;;;;;;;;5027185;28;20044;-53
2022/01/10 07:48:54;;;;;;;3.90;2.05;;;;;;;;;;5025308;28;20053;-57
2022/01/10 07:51:21;;;;;;;7.15;3.17;;;;;;;;;;5023513;28;20037;-57
2022/01/10 07:53:48;;;;;;;2.85;2.15;;;;;;;;;;5020132;28;20112;-57
2022/01/10 07:56:14;;;;;;;6.72;2.15;;;;;;;;;;5026564;28;20037;-54
2022/01/10 07:58:39;;;;;;;3.92;1.90;;;;;;;;;;5026346;28;20029;-57
2022/01/10 08:01:05;;;;;;;8.35;2.35;;;;;;;;;;5023967;28;20041;-53
2022/01/10 08:03:31;;;;;;;4.45;2.17;;;;;;;;;;5024935;28;20113;-56
2022/01/10 08:05:57;;;;;;;5.50;2.33;;;;;;;;;;5021028;28;20123;-56
2022/01/10 08:08:23;;;;;;;6.38;2.47;;;;;;;;;;5023379;28;20132;-57
2022/01/10 08:10:49;;;;;;;4.85;2.22;;;;;;;;;;5029715;28;20127;-55
2022/01/10 08:13:14;;;;;;;5.80;2.42;;;;;;;;;;5022305;28;20034;-56
2022/01/10 08:15:40;;;;;;;6.75;2.42;;;;;;;;;;5020331;28;20037;-55
2022/01/10 08:18:07;;;;;;;6.35;2.40;;;;;;;;;;5024874;28;20433;-53
2022/01/10 08:20:33;;;;;;;4.63;2.22;;;;;;;;;;5026056;28;20042;-56
2022/01/10 08:22:59;;;;;;;6.82;2.35;;;;;;;;;;5025110;28;20107;-55
2022/01/10 08:25:25;;;;;;;6.32;2.70;;;;;;;;;;5023001;28;20088;-57
2022/01/10 08:27:50;;;;;;;4.93;2.35;;;;;;;;;;5027229;28;20037;-54
2022/01/10 08:30:17;;;;;;;6.70;2.33;;;;;;;;;;5022386;28;20431;-56
2022/01/10 08:32:44;;;;;;;3.25;2.08;;;;;;;;;;5024696;28;20034;-56
2022/01/10 08:35:10;;;;;;;3.95;2.25;;;;;;;;;;5026739;28;20038;-56
2022/01/10 08:37:36;;;;;;;5.30;2.58;;;;;;;;;;5022355;28;20041;-55
2022/01/10 08:40:03;;;;;;;4.18;2.35;;;;;;;;;;5020279;28;20624;-56
2022/01/10 08:42:29;;;;;;;4.90;2.40;;;;;;;;;;5029245;28;20033;-55
2022/01/10 08:44:55;;;;;;;3.13;2.10;;;;;;;;;;5027133;28;20033;-57
2022/01/10 08:47:21;;;;;;;5.68;2.47;;;;;;;;;;5022489;28;20383;-57
2022/01/10 08:49:47;;;;;;;5.63;2.15;;;;;;;;;;5022834;28;20029;-56
2022/01/10 08:52:14;;;;;;;3.28;2.30;;;;;;;;;;5025295;28;20033;-55
2022/01/10 08:54:40;;;;;;;5.32;2.17;;;;;;;;;;5019312;28;20041;-53
2022/01/10 08:57:06;;;;;;;5.25;2.92;;;;;;;;;;5024133;28;20063;-48
2022/01/10 08:59:32;;;;;;;5.15;2.38;;;;;;;;;;5022932;28;20112;-48
2022/01/10 09:01:58;;;;;;;5.70;2.92;;;;;;;;;;5023178;28;20038;-51
2022/01/10 09:04:25;;;;;;;4.93;2.58;;;;;;;;;;5025343;28;20116;-53
2022/01/10 09:06:54;;;;;;;7.50;2.70;;;;;;;;;;5017282;28;20125;-51
2022/01/10 09:09:20;;;;;;;6.45;3.05;;;;;;;;;;5021443;28;20459;-49
2022/01/10 09:11:47;;;;;;;2.72;2.38;;;;;;;;;;5025521;28;20057;-49
2022/01/10 09:14:14;;;;;;;3.35;2.33;;;;;;;;;;5023443;28;20375;-51
2022/01/10 09:16:41;;;;;;;6.25;2.60;;;;;;;;;;5019829;28;20124;-51
2022/01/10 09:19:07;;;;;;;5.10;2.58;;;;;;;;;;5019582;28;20034;-51
2022/01/10 09:21:33;;;;;;;4.97;2.40;;;;;;;;;;5018269;28;20038;-48
2022/01/10 09:23:59;;;;;;;3.55;2.70;;;;;;;;;;5025971;28;20057;-54
2022/01/10 09:26:25;;;;;;;5.18;2.47;;;;;;;;;;5026363;28;20033;-51
2022/01/10 09:28:51;;;;;;;4.18;1.98;;;;;;;;;;5024257;28;20041;-50
2022/01/10 09:31:17;;;;;;;3.40;2.47;;;;;;;;;;5021981;28;20041;-53
2022/01/10 09:33:45;;;;;;;5.22;2.78;;;;;;;;;;5028852;28;20048;-53
2022/01/10 09:36:10;;;;;;;2.85;2.15;;;;;;;;;;5026326;28;20052;-50
2022/01/10 09:38:36;;;;;;;6.60;2.30;;;;;;;;;;5024123;28;20034;-52
2022/01/10 09:41:02;;;;;;;4.57;2.38;;;;;;;;;;5025025;28;20095;-51
2022/01/10 09:43:27;;;;;;;4.60;2.20;;;;;;;;;;5021843;28;20080;-52
2022/01/10 09:45:56;;;;;;;3.13;2.08;;;;;;;;;;5024917;28;20083;-51
2022/01/10 09:48:22;;;;;;;2.97;2.33;;;;;;;;;;5021747;28;20037;-51
2022/01/10 09:50:48;;;;;;;5.95;2.30;;;;;;;;;;5017721;28;20033;-49
2022/01/10 09:53:17;;;;;;;2.33;2.10;;;;;;;;;;5020145;28;20057;-51
2022/01/10 09:55:43;;;;;;;3.17;2.35;;;;;;;;;;5021783;28;20043;-50
2022/01/10 09:58:09;;;;;;;3.83;2.30;;;;;;;;;;5020177;28;20037;-49
2022/01/10 10:00:35;;;;;;;5.20;3.03;;;;;;;;;;5020719;28;20029;-51
2022/01/10 10:03:04;;;;;;;3.40;2.13;;;;;;;;;;5023437;28;20037;-52
2022/01/10 10:05:29;;;;;;;2.75;2.40;;;;;;;;;;5022213;28;20057;-50
2022/01/10 10:07:56;;;;;;;2.45;1.92;;;;;;;;;;5021983;28;20065;-53
2022/01/10 10:10:22;;;;;;;1.83;1.60;;;;;;;;;;5022546;28;20041;-51
2022/01/10 10:12:50;;;;;;;4.30;2.15;;;;;;;;;;5025324;28;20029;-51
2022/01/10 10:15:20;;;;;;;9.77;2.30;;;;;;;;;;5021451;28;20037;-50
2022/01/10 10:17:46;;;;;;;2.83;2.00;;;;;;;;;;5018776;28;20022;-52
2022/01/10 10:20:20;;;;;;;3.03;2.40;;;;;;;;;;5020980;28;20045;-52
2022/01/10 10:22:47;;;;;;;4.10;2.47;;;;;;;;;;5019116;28;20083;-53
2022/01/10 10:25:13;;;;;;;10.77;2.90;;;;;;;;;;5015219;28;20080;-49
2022/01/10 10:27:42;;;;;;;2.25;2.05;;;;;;;;;;5024272;28;20056;-51
2022/01/10 10:30:12;;;;;;;4.70;2.55;;;;;;;;;;5024161;28;20068;-53
2022/01/10 10:32:38;;;;;;;2.85;2.50;;;;;;;;;;5021126;28;20467;-50
2022/01/10 10:35:06;;;;;;;5.03;2.25;;;;;;;;;;5019566;28;20048;-51
2022/01/10 10:37:39;;;;;;;5.43;2.33;;;;;;;;;;5025078;28;20482;-49
2022/01/10 10:40:07;;;;;;;;;;;;;;;;;;5025385;28;20102;-47
2022/01/10 10:42:33;;;;;;;2.30;2.03;;;;;;;;;;5025525;28;19917;-54
2022/01/10 10:45:03;;;;;;;2.67;2.22;;;;;;;;;;5022259;28;20117;-54
2022/01/10 10:47:29;;;;;;;4.05;2.47;;;;;;;;;;5015957;28;20026;-53
2022/01/10 10:49:59;;;;;;;3.17;2.50;;;;;;;;;;5023919;28;20026;-49
2022/01/10 10:52:31;;;;;;;4.85;2.40;;;;;;;;;;5019018;28;20056;-50
2022/01/10 10:55:00;;;;;;;;;;;;;;;;;;5022109;28;20079;-49
2022/01/10 10:57:27;;;;;;;4.65;2.10;;;;;;;;;;5026447;28;19924;-56
2022/01/10 10:59:53;;;;;;;2.60;2.40;;;;;;;;;;5021538;28;20127;-52
2022/01/10 11:02:21;;;;;;;3.55;2.80;;;;;;;;;;5024628;28;20025;-57
2022/01/10 11:04:47;;;;;;;4.18;2.72;;;;;;;;;;5033696;28;20030;-50
2022/01/10 11:07:13;;;;;;;6.53;2.90;;;;;;;;;;5024199;28;20040;-51
2022/01/10 11:09:41;;;;;;;4.57;2.70;;;;;;;;;;5022701;28;20056;-49
2022/01/10 11:12:07;;;;;;;5.20;2.22;;;;;;;;;;5018710;28;20355;-48
2022/01/10 11:14:33;;;;;;;5.10;2.40;;;;;;;;;;5019561;28;20022;-49
2022/01/10 11:16:59;;;;;;;6.95;2.55;;;;;;;;;;5021120;28;20686;-51
2022/01/10 11:19:26;;;;;;;3.50;2.33;;;;;;;;;;5019237;28;20516;-51
2022/01/10 11:22:08;;;;;;;9.05;2.45;;;;;;;;;;5018572;28;20030;-48
2022/01/10 11:24:50;;;;;;;3.33;2.13;;;;;;;;;;5023874;28;20037;-57
2022/01/10 11:27:43;;;;;;;4.28;2.20;;;;;;;;;;5023221;28;20033;-52
2022/01/10 11:30:35;;;;;;;3.05;2.30;;;;;;;;;;5019568;28;20537;-53
2022/01/10 11:33:12;;;;;;;9.10;2.53;;;;;;;;;;5023200;28;20030;-49
2022/01/10 11:35:46;;;;;;;6.50;2.78;;;;;;;;;;5021937;28;20033;-53
2022/01/10 11:38:21;;;;;;;7.90;2.42;;;;;;;;;;5025220;28;20029;-50
2022/01/10 11:40:50;;;;;;;2.67;2.40;;;;;;;;;;5017517;28;20060;-49
2022/01/10 11:43:43;;;;;;;3.88;2.58;;;;;;;;;;5020348;28;20059;-50
2022/01/10 11:46:35;;;;;;;3.35;2.38;;;;;;;;;;5021667;28;20390;-50
2022/01/10 11:49:03;;;;;;;2.20;1.83;;;;;;;;;;5019146;28;20033;-50
2022/01/10 11:51:39;;;;;;;2.13;1.80;;;;;;;;;;5021466;28;20065;-53
2022/01/10 11:54:15;;;;;;;1.80;1.70;;;;;;;;;;5017806;28;20041;-54
2022/01/10 11:56:46;;;;;;;2.58;1.90;;;;;;;;;;5022192;28;20041;-50
2022/01/10 11:59:25;;;;;;;2.33;1.50;;;;;;;;;;5026110;28;20510;-50
2022/01/10 12:02:11;;;;;;;2.22;1.92;;;;;;;;;;5020618;28;20072;-56
2022/01/10 12:04:43;;;;;;;3.10;1.77;;;;;;;;;;5020994;28;25819;-56
2022/01/10 12:07:13;;;;;;;3.08;1.80;;;;;;;;;;5019304;28;20033;-53
2022/01/10 12:09:40;;;;;;;2.67;2.03;;;;;;;;;;5018557;28;20374;-50
2022/01/10 12:12:08;;;;;;;2.33;1.88;;;;;;;;;;5020842;28;20025;-49
2022/01/10 12:14:34;;;;;;;3.83;1.52;;;;;;;;;;5018002;28;20381;-51
2022/01/10 12:17:01;;;;;;;3.58;2.10;;;;;;;;;;5017207;28;20044;-54
2022/01/10 12:19:27;;;;;;;1.90;1.60;;;;;;;;;;5020088;28;20045;-50
2022/01/10 12:21:54;;;;;;;2.70;2.17;;;;;;;;;;5025405;28;20136;-50
2022/01/10 12:24:20;;;;;;;2.30;2.10;;;;;;;;;;5020858;28;20042;-49
2022/01/10 12:26:47;;;;;;;1.95;1.70;;;;;;;;;;5021336;28;20026;-51
2022/01/10 12:29:14;;;;;;;4.22;2.80;;;;;;;;;;5021340;28;20051;-52
2022/01/10 12:31:43;;;;;;;5.72;3.03;;;;;;;;;;5029471;28;20029;-53
2022/01/10 12:34:10;;;;;;;3.80;2.42;;;;;;;;;;5020384;28;20056;-50
2022/01/10 12:36:38;;;;;;;1.80;1.70;;;;;;;;;;5022807;28;20052;-54
2022/01/10 12:39:09;;;;;;;6.55;1.80;;;;;;;;;;5029205;28;20040;-50
2022/01/10 12:41:36;;;;;;;2.42;1.55;;;;;;;;;;5026998;28;20458;-54
2022/01/10 12:44:02;;;;;;;3.78;1.80;;;;;;;;;;5023430;28;20394;-52
2022/01/10 12:46:32;;;;;;;2.67;1.60;;;;;;;;;;5023954;28;20044;-54
2022/01/10 12:49:02;;;;;;;3.40;1.65;;;;;;;;;;5027608;28;22113;-54
2022/01/10 12:51:34;;;;;;;2.17;1.58;;;;;;;;;;5027160;28;20041;-54
2022/01/10 12:53:59;;;;;;;1.95;1.50;;;;;;;;;;5027022;28;20526;-52
2022/01/10 12:56:25;;;;;;;2.25;1.70;;;;;;;;;;5021625;28;20127;-54
2022/01/10 12:58:51;;;;;;;1.60;1.50;;;;;;;;;;5018737;28;20025;-51
2022/01/10 13:01:20;;;;;;;2.33;1.67;;;;;;;;;;5023695;28;20057;-56
2022/01/10 13:03:51;;;;;;;1.65;1.40;;;;;;;;;;5029892;28;20025;-48
2022/01/10 13:06:17;;;;;;;2.42;1.55;;;;;;;;;;5027460;28;20035;-53
2022/01/10 13:08:43;;;;;;;1.42;1.33;;;;;;;;;;5022177;28;20030;-53
2022/01/10 13:11:15;;;;;;;5.55;2.38;;;;;;;;;;5023159;28;20087;-51
2022/01/10 13:13:44;;;;;;;10.35;4.15;;;;;;;;;;5022532;28;20166;-54
2022/01/10 13:16:30;;;;;;;14.40;5.70;;;;;;;;;;5030246;28;20041;-50
2022/01/10 13:19:06;;;;;;;5.88;3.60;;;;;;;;;;5019690;28;20025;-53
2022/01/10 13:21:39;;;;;;;14.27;2.85;;;;;;;;;;5023129;28;20065;-54
2022/01/10 13:24:23;;;;;;;2.30;1.80;;;;;;;;;;5028176;28;20061;-55
2022/01/10 13:26:56;;;;;;;3.15;1.60;;;;;;;;;;5023160;28;20040;-50
2022/01/10 13:29:42;;;;;;;2.65;1.83;;;;;;;;;;5025086;28;20034;-49
2022/01/10 13:32:27;;;;;;;3.13;1.90;;;;;;;;;;5027170;28;20034;-53
2022/01/10 13:35:07;;;;;;;10.48;2.33;;;;;;;;;;5023175;28;20075;-48
2022/01/10 13:37:50;;;;;;;3.53;2.20;;;;;;;;;;5023202;28;20029;-51
2022/01/10 13:40:19;;;;;;;3.08;1.67;;;;;;;;;;5023939;28;20761;-53
2022/01/10 13:42:50;;;;;;;3.70;1.73;;;;;;;;;;5020358;28;20029;-51
2022/01/10 13:46:07;;;;;;;1.55;1.33;;;;;;;;;;5021319;28;20064;-54
2022/01/10 13:48:39;;;;;;;2.33;1.52;;;;;;;;;;4994494;28;20050;-53
2022/01/10 13:51:30;;;;;;;1.65;1.55;;;;;;;;;;4996538;28;20042;-49
2022/01/10 13:53:56;;;;;;;3.70;1.65;;;;;;;;;;4992661;28;20048;-54
2022/01/10 13:56:28;;;;;;;3.08;1.90;;;;;;;;;;4994207;28;20031;-50
2022/01/10 13:59:00;;;;;;;5.10;1.90;;;;;;;;;;4995539;28;20499;-51
2022/01/10 14:01:39;;;;;;;4.32;2.42;;;;;;;;;;4992635;28;20034;-56
2022/01/10 14:04:30;;;;;;;1.90;1.80;;;;;;;;;;5002867;28;20072;-48
2022/01/10 14:06:58;;;;;;;1.60;1.50;;;;;;;;;;5000397;28;20033;-51
2022/01/10 14:09:26;;;;;;;2.95;1.85;;;;;;;;;;4998486;28;20062;-52
2022/01/10 14:11:53;;;;;;;1.58;1.48;;;;;;;;;;5000622;28;20092;-56
2022/01/10 14:14:19;;;;;;;5.60;1.80;;;;;;;;;;4996864;28;20034;-52
2022/01/10 14:16:49;;;;;;;1.90;1.50;;;;;;;;;;4995980;28;20046;-49
2022/01/10 14:19:16;;;;;;;2.13;1.70;;;;;;;;;;4997809;28;20030;-50
2022/01/10 14:21:42;;;;;;;1.95;1.50;;;;;;;;;;4997800;28;20030;-51
2022/01/10 14:24:08;;;;;;;2.40;1.50;;;;;;;;;;5004272;28;20045;-51
2022/01/10 14:26:35;;;;;;;4.35;1.60;;;;;;;;;;5021060;28;20096;-48
2022/01/10 14:29:03;;;;;;;1.65;1.55;;;;;;;;;;5018843;28;20033;-56
2022/01/10 14:31:29;;;;;;;1.85;1.55;;;;;;;;;;5021912;28;20032;-54
2022/01/10 14:33:56;;;;;;;1.65;1.55;;;;;;;;;;5023950;28;20031;-56
2022/01/10 14:36:22;;;;;;;3.20;2.42;;;;;;;;;;5021549;28;20029;-53
2022/01/10 14:38:48;;;;;;;2.72;1.58;;;;;;;;;;5021843;28;20032;-54
2022/01/10 14:41:14;;;;;;;2.65;2.20;;;;;;;;;;5024575;28;20033;-48
2022/01/10 14:43:40;;;;;;;1.80;1.63;;;;;;;;;;5022817;28;20037;-55
2022/01/10 14:46:08;;;;;;;3.03;1.70;;;;;;;;;;5023979;28;20029;-54
2022/01/10 14:48:34;;;;;;;1.35;1.23;;;;;;;;;;5024005;28;20124;-54
2022/01/10 14:51:02;;;;;;;1.58;1.48;;;;;;;;;;5018399;28;20038;-52
2022/01/10 14:53:28;;;;;;;1.95;1.63;;;;;;;;;;5021779;28;20104;-55
2022/01/10 14:55:55;;;;;;;1.70;1.60;;;;;;;;;;5025553;28;20128;-56
2022/01/10 14:58:22;;;;;;;3.17;1.73;;;;;;;;;;5025550;28;20029;-52